Time;durP1;ratioP1;P1;durP2;ratioP2;P2;SDS_P1;SDS_P2;PMS_P1;PMS_P2;Temp;Humidity;BMP_temperature;BMP_pressure;BME280_temperature;BME280_humidity;BME280_pressure;Samples;Min_cycle;Max_cycle;Signal;HPM_P1;HPM_P2
2022/11/25 00:00:21;;;;;;;7.78;4.30;;;;;;;4.76;73.33;96608.91;6097676;23;20022;-82
2022/11/25 00:02:48;;;;;;;7.88;4.35;;;;;;;4.70;73.71;96615.50;6097860;23;20022;-81
2022/11/25 00:05:16;;;;;;;7.15;4.15;;;;;;;4.63;73.62;96608.44;6097730;23;20336;-81
2022/11/25 00:07:44;;;;;;;9.13;4.75;;;;;;;4.59;74.02;96612.28;6097482;23;20026;-81
2022/11/25 00:10:11;;;;;;;7.93;4.05;;;;;;;4.56;73.89;96615.16;6097621;23;20048;-82
2022/11/25 00:12:39;;;;;;;7.93;3.25;;;;;;;4.52;74.22;96612.84;6097556;23;20026;-82
2022/11/25 00:15:07;;;;;;;7.38;4.15;;;;;;;4.50;74.02;96609.63;6097792;23;20053;-82
2022/11/25 00:17:36;;;;;;;7.47;4.05;;;;;;;4.45;74.48;96606.63;6097380;23;20022;-82
2022/11/25 00:20:05;;;;;;;8.63;4.30;;;;;;;4.42;74.25;96612.09;6097125;23;20042;-82
2022/11/25 00:22:32;;;;;;;10.32;3.80;;;;;;;4.38;74.40;96605.56;6096768;23;20256;-82
2022/11/25 00:25:00;;;;;;;8.68;4.75;;;;;;;4.38;74.54;96605.56;6097535;23;20338;-82
2022/11/25 00:27:27;;;;;;;8.18;4.20;;;;;;;4.36;74.69;96604.91;6097662;23;20051;-82
2022/11/25 00:29:55;;;;;;;6.50;4.03;;;;;;;4.32;74.68;96600.97;6096919;23;20033;-82
2022/11/25 00:32:22;;;;;;;12.35;4.88;;;;;;;4.31;75.21;96599.38;6097274;23;20018;-82
2022/11/25 00:34:51;;;;;;;14.05;4.63;;;;;;;4.31;75.33;96607.91;6098060;23;20019;-82
2022/11/25 00:37:19;;;;;;;7.97;4.25;;;;;;;4.30;75.15;96600.31;6098636;23;20363;-82
2022/11/25 00:39:47;;;;;;;6.55;4.00;;;;;;;4.26;75.16;96597.22;6097649;23;20018;-82
2022/11/25 00:45:01;;;;;;;11.73;4.75;;;;;;;4.25;74.83;96600.75;6097531;23;20023;-82
2022/11/25 00:47:29;;;;;;;11.35;4.55;;;;;;;4.23;74.71;96601.84;6097587;23;20347;-82
2022/11/25 00:49:57;;;;;;;11.68;4.97;;;;;;;4.19;75.03;96605.66;6096415;23;20027;-82
2022/11/25 00:52:26;;;;;;;9.45;4.07;;;;;;;4.15;75.04;96606.88;6098128;23;20466;-82
2022/11/25 00:54:54;;;;;;;9.23;3.92;;;;;;;4.13;75.11;96607.03;6099550;23;20026;-82
2022/11/25 00:57:23;;;;;;;13.98;4.95;;;;;;;4.10;75.06;96613.28;6099788;23;20101;-82
2022/11/25 00:59:51;;;;;;;10.88;5.03;;;;;;;4.11;75.38;96617.50;6098861;23;20101;-82
2022/11/25 01:02:19;;;;;;;11.85;5.63;;;;;;;4.12;75.47;96613.16;6099356;23;20022;-82
2022/11/25 01:04:47;;;;;;;10.80;6.38;;;;;;;4.11;75.34;96620.09;6099451;23;20022;-82
2022/11/25 01:07:16;;;;;;;9.45;6.43;;;;;;;4.12;75.36;96621.69;6099266;23;20022;-82
2022/11/25 01:09:44;;;;;;;13.40;6.22;;;;;;;4.12;75.25;96624.28;6098648;23;20027;-82
2022/11/25 01:12:12;;;;;;;9.65;5.50;;;;;;;4.10;75.34;96628.78;6099642;23;20022;-81
2022/11/25 01:14:39;;;;;;;8.68;5.22;;;;;;;4.10;75.20;96628.78;6099247;23;20026;-81
2022/11/25 01:17:07;;;;;;;6.13;4.22;;;;;;;4.10;75.70;96628.78;6098621;23;20029;-82
2022/11/25 01:19:38;;;;;;;8.10;4.30;;;;;;;4.09;75.35;96627.16;6099703;23;20029;-82
2022/11/25 01:22:06;;;;;;;12.45;5.03;;;;;;;4.10;75.40;96635.72;6099699;23;20054;-82
2022/11/25 01:24:35;;;;;;;10.00;4.22;;;;;;;4.12;75.80;96636.38;6099380;23;20034;-82
2022/11/25 01:27:04;;;;;;;8.70;4.65;;;;;;;4.12;75.22;96637.19;6099525;23;20055;-82
2022/11/25 01:29:31;;;;;;;9.60;5.00;;;;;;;4.13;75.57;96627.66;6099094;23;20101;-82
2022/11/25 01:31:59;;;;;;;9.00;4.72;;;;;;;4.15;75.91;96630.13;6098603;23;20029;-82
2022/11/25 01:34:30;;;;;;;7.90;5.00;;;;;;;4.19;75.42;96631.47;6099095;23;20026;-81
2022/11/25 01:36:58;;;;;;;10.05;5.57;;;;;;;4.23;75.91;96632.81;6099101;23;20026;-81
2022/11/25 01:39:26;;;;;;;10.32;6.18;;;;;;;4.27;75.63;96623.84;6097007;23;20362;-81
2022/11/25 01:42:03;;;;;;;12.50;5.80;;;;;;;4.31;75.38;96625.19;6097433;23;20014;-82
2022/11/25 01:44:32;;;;;;;8.60;5.15;;;;;;;4.31;75.36;96630.34;6097894;23;20022;-82
2022/11/25 01:47:05;;;;;;;9.45;5.32;;;;;;;4.34;75.48;96619.72;6099552;23;20022;-82
2022/11/25 01:49:38;;;;;;;10.43;4.93;;;;;;;4.37;74.90;96624.59;6099110;23;20045;-82
2022/11/25 01:52:12;;;;;;;8.73;5.43;;;;;;;4.39;75.36;96617.53;6099443;23;20038;-82
2022/11/25 01:54:46;;;;;;;7.47;4.72;;;;;;;4.42;75.48;96627.59;6099410;23;20026;-82
2022/11/25 01:57:20;;;;;;;9.80;5.25;;;;;;;4.44;74.55;96630.00;6099416;23;20635;-82
2022/11/25 01:59:52;;;;;;;7.50;5.28;;;;;;;4.42;74.82;96622.44;6099617;23;20018;-82
2022/11/25 02:02:21;;;;;;;9.32;5.15;;;;;;;4.43;74.85;96628.41;6109057;23;20014;-81
2022/11/25 02:04:49;;;;;;;7.05;5.20;;;;;;;4.44;74.63;96625.69;6124475;23;20013;-82
2022/11/25 02:07:25;;;;;;;8.55;4.72;;;;;;;4.44;74.84;96630.84;6124104;23;20011;-81
2022/11/25 02:09:55;;;;;;;9.50;4.90;;;;;;;4.45;74.34;96629.06;6114508;23;20022;-82
2022/11/25 02:12:26;;;;;;;9.02;4.88;;;;;;;4.44;74.72;96625.69;6100223;23;20018;-82
2022/11/25 02:14:56;;;;;;;8.40;5.28;;;;;;;4.44;74.54;96630.84;6100470;23;20359;-82
2022/11/25 02:17:24;;;;;;;9.40;4.90;;;;;;;4.44;74.32;96630.84;6101167;23;20018;-82
2022/11/25 02:19:59;;;;;;;10.90;4.88;;;;;;;4.44;74.83;96624.84;6100278;23;20026;-82
2022/11/25 02:22:39;;;;;;;7.40;4.50;;;;;;;4.47;74.53;96619.41;6100806;23;20029;-82
2022/11/25 02:25:15;;;;;;;8.15;4.80;;;;;;;4.45;74.73;96616.97;6100294;23;20033;-82
2022/11/25 02:27:46;;;;;;;12.52;4.80;;;;;;;4.44;74.27;96622.25;6102165;23;20027;-80
2022/11/25 02:30:14;;;;;;;11.80;5.32;;;;;;;4.43;74.39;96624.03;6096937;23;20029;-81
2022/11/25 02:32:45;;;;;;;7.72;5.43;;;;;;;4.41;74.41;96620.78;6096795;23;20347;-82
2022/11/25 02:35:32;;;;;;;8.30;4.80;;;;;;;4.42;74.60;96621.63;6097409;23;20022;-82
2022/11/25 02:38:05;;;;;;;9.88;5.05;;;;;;;4.42;74.56;96621.63;6096062;23;20098;-82
2022/11/25 02:40:40;;;;;;;8.25;4.60;;;;;;;4.39;74.67;96612.34;6097045;23;20018;-82
2022/11/25 02:43:08;;;;;;;8.80;4.95;;;;;;;4.36;74.24;96622.97;6098090;23;20025;-82
2022/11/25 02:45:43;;;;;;;9.23;4.95;;;;;;;4.31;74.38;96614.84;6098842;23;20036;-81
2022/11/25 02:48:11;;;;;;;8.00;4.60;;;;;;;4.25;73.97;96610.25;6099364;23;20023;-82
2022/11/25 02:50:39;;;;;;;9.95;5.82;;;;;;;4.20;74.36;96609.84;6099056;23;20022;-82
2022/11/25 02:53:07;;;;;;;10.52;5.88;;;;;;;4.15;74.06;96609.47;6098546;23;20030;-82
2022/11/25 02:55:35;;;;;;;8.73;5.72;;;;;;;4.09;74.54;96611.66;6099379;23;20028;-82
2022/11/25 02:58:03;;;;;;;8.32;5.85;;;;;;;4.06;74.25;96596.44;6098820;23;20023;-82
2022/11/25 03:00:31;;;;;;;7.60;5.00;;;;;;;4.02;74.50;96589.94;6099073;23;20470;-82
2022/11/25 03:02:59;;;;;;;10.70;5.50;;;;;;;3.99;74.11;96585.06;6099315;23;20103;-82
2022/11/25 03:05:27;;;;;;;8.18;5.32;;;;;;;3.95;74.38;96578.56;6099193;23;20022;-82
2022/11/25 03:07:55;;;;;;;8.70;5.85;;;;;;;3.92;74.42;96577.06;6098890;23;20467;-82
2022/11/25 03:10:22;;;;;;;11.65;5.30;;;;;;;3.92;74.86;96574.50;6098323;23;20362;-82
2022/11/25 03:12:51;;;;;;;7.40;4.95;;;;;;;3.95;74.62;96570.81;6100084;23;20501;-82
2022/11/25 03:15:19;;;;;;;7.72;5.35;;;;;;;3.95;74.76;96568.22;6099599;23;20029;-81
2022/11/25 03:17:47;;;;;;;6.55;4.10;;;;;;;3.90;74.83;96578.19;6099614;23;20026;-82
2022/11/25 03:20:15;;;;;;;9.07;4.75;;;;;;;3.87;74.56;96576.69;6099987;23;20026;-82
2022/11/25 03:22:43;;;;;;;9.63;5.15;;;;;;;3.84;74.87;96591.63;6099473;23;20477;-82
2022/11/25 03:25:11;;;;;;;6.57;3.92;;;;;;;3.78;74.63;96587.03;6100327;23;20366;-81
2022/11/25 03:27:39;;;;;;;7.72;4.45;;;;;;;3.76;74.61;96586.34;6100020;23;20025;-82
2022/11/25 03:30:11;;;;;;;7.15;4.18;;;;;;;3.76;75.04;96582.03;6098780;23;20542;-81
2022/11/25 03:32:39;;;;;;;5.68;4.45;;;;;;;3.76;75.01;96583.78;6098799;23;20486;-81
2022/11/25 03:35:08;;;;;;;6.70;3.97;;;;;;;3.80;75.61;96590.28;6099041;23;20034;-81
2022/11/25 03:37:36;;;;;;;7.90;5.20;;;;;;;3.86;75.91;96587.94;6099514;23;20023;-82
2022/11/25 03:40:05;;;;;;;6.10;4.13;;;;;;;3.91;76.72;96583.22;6098956;23;20026;-82
2022/11/25 03:42:33;;;;;;;6.05;3.97;;;;;;;3.96;76.26;96585.34;6099462;23;20025;-81
2022/11/25 03:45:01;;;;;;;5.03;3.92;;;;;;;4.00;76.48;96596.19;6098172;23;20694;-82
2022/11/25 03:47:30;;;;;;;6.28;3.83;;;;;;;4.04;76.74;96600.94;6098812;23;20018;-82
2022/11/25 03:49:57;;;;;;;5.63;4.20;;;;;;;4.08;76.46;96588.56;6097646;23;20077;-82
2022/11/25 03:52:25;;;;;;;6.57;4.38;;;;;;;4.10;76.05;96591.81;6098665;23;20023;-82
2022/11/25 03:54:53;;;;;;;7.10;4.03;;;;;;;4.13;75.95;96592.38;6098729;23;20022;-82
2022/11/25 03:57:20;;;;;;;5.05;3.88;;;;;;;4.15;75.65;96583.66;6098557;23;20041;-82
2022/11/25 03:59:48;;;;;;;7.80;4.70;;;;;;;4.15;74.85;96583.66;6098230;23;20022;-81
2022/11/25 04:02:15;;;;;;;7.93;5.07;;;;;;;4.16;75.09;96580.13;6098005;23;20351;-82
2022/11/25 04:04:45;;;;;;;7.50;5.35;;;;;;;4.13;74.57;96578.63;6098346;23;20098;-81
2022/11/25 04:07:12;;;;;;;9.35;5.35;;;;;;;4.05;74.64;96574.19;6098430;23;20023;-82
2022/11/25 04:09:40;;;;;;;7.20;5.40;;;;;;;3.98;74.51;96577.47;6098077;23;20030;-82
2022/11/25 04:14:55;;;;;;;9.75;5.78;;;;;;;3.85;74.51;96582.94;6096395;23;20026;-78
2022/11/25 04:17:23;;;;;;;6.43;5.25;;;;;;;3.81;74.91;96586.75;6096692;23;20023;-77
2022/11/25 04:19:52;;;;;;;6.43;5.35;;;;;;;3.79;74.93;96588.66;6096410;23;20026;-78
2022/11/25 04:22:19;;;;;;;6.47;5.43;;;;;;;3.77;75.35;96590.56;6096822;23;20346;-77
2022/11/25 04:24:47;;;;;;;7.82;5.82;;;;;;;3.77;75.71;96600.88;6096547;23;20411;-78
2022/11/25 04:27:14;;;;;;;8.43;6.15;;;;;;;3.78;75.29;96592.19;6096564;23;20348;-78
2022/11/25 04:29:42;;;;;;;10.65;7.05;;;;;;;3.75;75.21;96589.91;6096113;23;20491;-78
2022/11/25 04:32:09;;;;;;;10.63;7.78;;;;;;;3.74;75.02;96588.25;6096695;23;20018;-79
2022/11/25 04:34:37;;;;;;;9.90;6.68;;;;;;;3.71;75.23;96585.00;6096499;23;20022;-78
2022/11/25 04:37:06;;;;;;;10.15;7.20;;;;;;;3.70;75.43;96585.97;6099636;23;20022;-78
2022/11/25 04:39:33;;;;;;;10.40;7.25;;;;;;;3.66;74.93;96589.78;6097317;23;20030;-79
2022/11/25 04:44:42;;;;;;;10.32;6.88;;;;;;;3.58;75.00;96576.75;6071982;23;20026;-78
2022/11/25 04:47:30;;;;;;;9.88;7.75;;;;;;;3.55;75.44;96582.19;6096110;23;20030;-79
2022/11/25 04:49:58;;;;;;;14.70;8.18;;;;;;;3.53;75.42;96586.66;6095805;23;20030;-78
2022/11/25 04:52:27;;;;;;;11.80;8.45;;;;;;;3.49;75.56;96575.81;6096587;23;20019;-78
2022/11/25 04:54:55;;;;;;;15.10;8.38;;;;;;;3.49;75.63;96577.56;6096339;23;20023;-78
2022/11/25 04:57:22;;;;;;;17.48;9.25;;;;;;;3.50;75.78;96584.38;6096156;23;20050;-79
2022/11/25 04:59:49;;;;;;;16.50;9.85;;;;;;;3.50;75.94;96586.97;6095600;23;20034;-78
2022/11/25 05:02:19;;;;;;;17.15;9.52;;;;;;;3.49;76.05;96598.22;6096074;23;20027;-78
2022/11/25 05:04:48;;;;;;;13.93;8.98;;;;;;;3.51;76.03;96596.31;6096036;23;20022;-78
2022/11/25 05:07:18;;;;;;;11.05;8.07;;;;;;;3.55;75.91;96591.69;6096229;23;20092;-79
2022/11/25 05:09:47;;;;;;;11.98;7.80;;;;;;;3.60;76.30;96594.66;6096450;23;20110;-78
2022/11/25 05:12:17;;;;;;;12.05;7.38;;;;;;;3.62;76.49;96590.19;6096005;23;20018;-78
2022/11/25 05:14:45;;;;;;;12.30;7.80;;;;;;;3.66;76.35;96594.94;6096027;23;20018;-78
2022/11/25 05:17:16;;;;;;;11.40;7.65;;;;;;;3.72;77.22;96594.38;6096327;23;20018;-78
2022/11/25 05:19:44;;;;;;;12.38;7.32;;;;;;;3.79;76.88;96596.41;6095690;23;20026;-77
2022/11/25 05:22:12;;;;;;;12.20;7.82;;;;;;;3.82;77.12;96596.13;6096395;23;20044;-79
2022/11/25 05:24:40;;;;;;;9.52;7.00;;;;;;;3.85;76.64;96595.84;6096130;23;20493;-78
2022/11/25 05:27:09;;;;;;;14.75;7.43;;;;;;;3.87;76.72;96597.34;6096349;23;20025;-78
2022/11/25 05:29:37;;;;;;;13.05;8.15;;;;;;;3.92;76.54;96591.75;6096341;23;20018;-79
2022/11/25 05:32:06;;;;;;;11.98;7.20;;;;;;;3.96;76.90;96595.69;6096410;23;20351;-79
2022/11/25 05:34:34;;;;;;;15.27;7.97;;;;;;;4.01;76.68;96588.31;6096173;23;20018;-78
2022/11/25 05:37:02;;;;;;;11.07;8.07;;;;;;;4.04;76.69;96590.59;6096433;23;20109;-78
2022/11/25 05:39:30;;;;;;;12.40;7.65;;;;;;;4.04;76.58;96585.44;6097667;23;20033;-77
2022/11/25 05:41:57;;;;;;;10.23;7.65;;;;;;;4.07;76.39;96590.34;6097736;23;20026;-78
2022/11/25 05:44:26;;;;;;;9.35;7.22;;;;;;;4.09;76.52;96593.59;6097733;23;20029;-78
2022/11/25 05:46:54;;;;;;;10.73;8.15;;;;;;;4.12;76.05;96598.47;6097884;23;20399;-78
2022/11/25 05:49:21;;;;;;;11.85;7.30;;;;;;;4.16;76.59;96600.78;6097424;23;20034;-79
2022/11/25 05:51:49;;;;;;;11.32;7.63;;;;;;;4.21;76.70;96603.75;6098369;23;20027;-78
2022/11/25 05:54:17;;;;;;;13.05;8.85;;;;;;;4.24;76.09;96600.88;6098521;23;20029;-78
2022/11/25 05:56:44;;;;;;;11.43;8.38;;;;;;;4.25;76.60;96602.50;6098001;23;20023;-78
2022/11/25 05:59:12;;;;;;;11.52;7.82;;;;;;;4.30;76.12;96597.72;6097981;23;20033;-78
2022/11/25 06:01:41;;;;;;;11.48;8.60;;;;;;;4.30;76.07;96600.31;6097357;23;20026;-77
2022/11/25 06:04:10;;;;;;;9.18;7.68;;;;;;;4.29;75.67;96604.66;6097922;23;20019;-77
2022/11/25 06:06:37;;;;;;;12.77;7.82;;;;;;;4.27;75.61;96610.94;6097506;23;20029;-78
2022/11/25 06:09:05;;;;;;;13.25;8.10;;;;;;;4.25;75.65;96625.75;6097443;23;20028;-77
2022/11/25 06:11:33;;;;;;;11.13;7.80;;;;;;;4.20;75.44;96627.91;6096473;23;20022;-78
2022/11/25 06:14:00;;;;;;;11.63;7.40;;;;;;;4.19;75.90;96631.47;6096554;23;20023;-77
2022/11/25 06:16:28;;;;;;;10.52;8.40;;;;;;;4.17;75.71;96620.47;6097539;23;20022;-78
2022/11/25 06:18:59;;;;;;;14.43;8.73;;;;;;;4.16;75.90;96626.59;6100819;23;20042;-81
2022/11/25 06:21:31;;;;;;;11.20;7.88;;;;;;;4.12;75.40;96626.88;6102280;23;20037;-81
2022/11/25 06:24:03;;;;;;;12.85;8.75;;;;;;;4.06;75.62;96622.25;6105356;23;20033;-80
2022/11/25 06:26:30;;;;;;;11.15;7.97;;;;;;;4.03;75.47;96622.56;6107547;23;20014;-80
2022/11/25 06:28:58;;;;;;;11.07;8.27;;;;;;;3.98;75.60;96619.59;6099131;23;20022;-81
2022/11/25 06:31:37;;;;;;;13.57;7.55;;;;;;;3.96;75.99;96611.16;6101332;23;20025;-81
2022/11/25 06:34:25;;;;;;;12.60;7.47;;;;;;;3.96;76.01;96610.34;6105255;23;20265;-81
2022/11/25 06:36:56;;;;;;;11.20;7.38;;;;;;;3.97;76.62;96617.13;6101920;23;20485;-80
2022/11/25 06:39:23;;;;;;;12.35;7.78;;;;;;;3.99;76.22;96615.22;6099073;23;20097;-80
2022/11/25 06:41:51;;;;;;;12.48;8.40;;;;;;;3.95;75.66;96611.31;6099110;23;20022;-81
2022/11/25 06:44:19;;;;;;;10.07;7.18;;;;;;;3.93;75.78;96616.59;6103027;23;20033;-81
2022/11/25 06:47:05;;;;;;;13.85;9.13;;;;;;;3.90;75.99;96616.88;6102779;23;20416;-81
2022/11/25 06:52:56;;;;;;;12.82;7.95;;;;;;;3.88;75.71;96629.13;6099000;23;20052;-79
2022/11/25 06:55:23;;;;;;;10.93;7.68;;;;;;;3.89;76.28;96635.88;6097867;23;20772;-80
2022/11/25 06:57:51;;;;;;;9.52;6.75;;;;;;;3.90;75.84;96632.38;6097579;23;20026;-80
2022/11/25 07:00:34;;;;;;;9.18;6.80;;;;;;;3.91;76.07;96633.97;6099646;23;20074;-82
2022/11/25 07:03:04;;;;;;;10.45;7.50;;;;;;;3.92;75.69;96640.78;6101244;23;20022;-81
2022/11/25 07:05:39;;;;;;;11.07;7.43;;;;;;;3.96;76.01;96652.47;6104680;23;20347;-82
2022/11/25 07:08:12;;;;;;;10.85;7.60;;;;;;;3.98;75.60;96663.47;6102025;23;20023;-81
2022/11/25 07:10:56;;;;;;;10.90;7.78;;;;;;;4.03;77.20;96671.59;6101450;23;20026;-81
2022/11/25 07:13:49;;;;;;;10.68;7.35;;;;;;;4.12;76.63;96673.34;6099516;23;20089;-81
2022/11/25 07:16:25;;;;;;;10.43;7.43;;;;;;;4.19;76.10;96670.19;6100915;23;20097;-81
2022/11/25 07:19:13;;;;;;;9.23;5.57;;;;;;;4.25;76.16;96672.22;6101799;23;20049;-81
2022/11/25 07:21:56;;;;;;;8.68;6.57;;;;;;;4.32;75.97;96679.25;6100576;23;20025;-80
2022/11/25 07:27:43;;;;;;;12.82;7.15;;;;;;;4.41;75.02;96679.38;6103885;23;19917;-82
2022/11/25 07:30:39;;;;;;;16.58;7.63;;;;;;;4.41;75.25;96682.75;6104041;23;20041;-81
2022/11/25 07:33:51;;;;;;;23.52;8.98;;;;;;;4.38;74.79;96675.31;6102131;23;20340;-81
2022/11/25 07:36:32;;;;;;;11.68;7.30;;;;;;;4.37;74.55;96678.03;6104021;23;20026;-81
2022/11/25 07:39:13;;;;;;;14.02;7.60;;;;;;;4.36;74.48;96674.63;6102972;23;20077;-80
2022/11/25 07:44:48;;;;;;;10.95;6.75;;;;;;;4.45;74.47;96686.69;6112610;23;20014;-80
2022/11/25 07:47:25;;;;;;;12.65;7.40;;;;;;;4.52;75.20;96680.00;6107379;23;20033;-81
2022/11/25 07:50:06;;;;;;;11.68;7.82;;;;;;;4.59;74.84;96679.44;6105679;23;20018;-81
2022/11/25 07:52:46;;;;;;;13.80;8.55;;;;;;;4.65;74.62;96668.53;6105980;23;20022;-82
2022/11/25 07:55:39;;;;;;;13.50;7.50;;;;;;;4.69;74.13;96668.09;6102873;23;20094;-81
2022/11/25 07:58:14;;;;;;;11.52;7.03;;;;;;;4.73;74.40;96666.06;6104955;23;20042;-82
2022/11/25 08:17:18;;;;;;;8.07;5.63;;;;;;;4.97;73.06;96698.34;6097211;23;20011;-83
2022/11/25 08:41:32;;;;;;;10.87;7.23;;;;;;;5.19;72.68;96697.94;6096571;23;19995;-81
2022/11/25 08:46:55;;;;;;;9.98;7.05;;;;;;;5.35;72.70;96702.44;6083737;23;20053;-81
2022/11/25 08:49:40;;;;;;;11.00;7.18;;;;;;;5.44;72.42;96706.72;6081642;23;20018;-80
2022/11/25 08:55:47;;;;;;;12.30;7.40;;;;;;;5.76;72.16;96708.00;6088559;23;20023;-81
2022/11/25 08:58:26;;;;;;;11.73;6.75;;;;;;;5.96;72.11;96714.66;6075153;23;20026;-79
2022/11/25 09:04:13;;;;;;;9.70;5.90;;;;;;;6.36;71.66;96715.09;6086557;23;20025;-79
2022/11/25 09:07:36;;;;;;;8.85;5.97;;;;;;;6.60;71.23;96714.44;6090332;23;20023;-80
2022/11/25 09:10:31;;;;;;;8.50;5.75;;;;;;;6.82;70.80;96718.28;6091237;23;20041;-80
2022/11/25 09:17:48;;;;;;;8.95;6.45;;;;;;;7.26;69.53;96718.13;5983856;23;20059;-81
2022/11/25 09:21:30;;;;;;;8.88;6.28;;;;;;;7.52;68.89;96725.00;5978026;24;20057;-80
2022/11/25 09:24:28;;;;;;;10.40;7.28;;;;;;;7.69;68.32;96716.25;6071045;23;20019;-81
2022/11/25 09:34:57;;;;;;;14.18;9.70;;;;;;;8.10;67.17;96718.06;5974492;24;20061;-83
2022/11/25 09:57:02;;;;;;;13.93;7.22;;;;;;;8.16;66.37;96710.44;6054590;23;20034;-80
2022/11/25 10:13:57;;;;;;;8.98;6.63;;;;;;;9.10;67.12;96735.94;6065814;23;20025;-77
2022/11/25 10:16:35;;;;;;;;;;;;;;;9.32;66.97;96740.38;6068884;23;20019;-76
2022/11/25 10:19:12;;;;;;;8.48;6.32;;;;;;;9.53;64.10;96738.97;6067301;23;19917;-77
2022/11/25 10:21:40;;;;;;;7.95;6.35;;;;;;;9.65;64.62;96735.81;6067891;23;20022;-77
2022/11/25 10:24:13;;;;;;;9.57;6.40;;;;;;;9.68;63.61;96743.25;6067299;23;20022;-77
2022/11/25 10:26:43;;;;;;;11.35;7.18;;;;;;;9.74;64.03;96744.38;6067753;23;20026;-77
2022/11/25 10:29:23;;;;;;;11.23;7.32;;;;;;;9.80;62.70;96748.91;6066995;23;20022;-76
2022/11/25 10:31:59;;;;;;;10.30;6.63;;;;;;;9.86;62.48;96752.59;6068505;23;20033;-77
2022/11/25 10:34:35;;;;;;;8.80;5.85;;;;;;;9.90;62.28;96739.06;6073713;23;20038;-77
2022/11/25 10:37:10;;;;;;;10.43;5.75;;;;;;;9.94;62.54;96739.53;6083791;23;20034;-77
2022/11/25 10:39:38;;;;;;;8.00;5.38;;;;;;;10.00;62.57;96738.81;6072480;23;20038;-77
2022/11/25 10:42:13;;;;;;;8.35;4.82;;;;;;;10.07;62.26;96738.94;6068574;23;20019;-78
2022/11/25 10:44:41;;;;;;;13.23;4.55;;;;;;;10.20;62.24;96730.53;6067892;23;20022;-77
2022/11/25 10:47:25;;;;;;;7.32;4.57;;;;;;;10.42;61.73;96734.13;6067731;23;20027;-77
2022/11/25 10:50:08;;;;;;;5.88;4.07;;;;;;;10.72;60.03;96741.00;6067509;23;20030;-77
2022/11/25 10:52:40;;;;;;;8.23;4.22;;;;;;;11.03;61.14;96744.41;6067873;23;20027;-77
2022/11/25 10:55:11;;;;;;;8.73;5.38;;;;;;;11.29;61.05;96742.13;6067264;23;20015;-77
2022/11/25 10:57:39;;;;;;;10.63;5.07;;;;;;;11.62;60.18;96740.91;6067697;23;20023;-77
2022/11/25 11:00:23;;;;;;;8.43;4.60;;;;;;;11.93;59.92;96741.44;6066857;23;20023;-76
2022/11/25 11:02:53;;;;;;;6.43;3.63;;;;;;;12.20;55.83;96739.09;6066878;23;20463;-76
2022/11/25 11:05:24;;;;;;;7.30;3.30;;;;;;;12.36;55.15;96738.81;6067629;23;20534;-77
2022/11/25 11:08:09;;;;;;;9.82;3.63;;;;;;;12.50;54.23;96733.66;6067330;23;20368;-76
2022/11/25 11:10:37;;;;;;;5.95;3.10;;;;;;;12.65;56.25;96733.59;6067432;23;20027;-77
2022/11/25 11:13:06;;;;;;;5.80;3.22;;;;;;;12.76;53.89;96730.44;6066895;23;20023;-78
2022/11/25 11:15:45;;;;;;;10.07;4.03;;;;;;;12.87;52.74;96732.50;6067268;23;20363;-77
2022/11/25 11:18:23;;;;;;;7.88;4.40;;;;;;;12.95;55.66;96728.94;6066794;23;20479;-79
2022/11/25 11:20:52;;;;;;;9.10;5.03;;;;;;;13.00;55.49;96739.63;6067446;23;20023;-77
2022/11/25 11:23:21;;;;;;;8.07;5.13;;;;;;;12.97;54.71;96737.41;6067912;23;20023;-80
2022/11/25 11:25:57;;;;;;;8.93;4.75;;;;;;;12.90;52.57;96744.41;6067356;23;20019;-78
2022/11/25 11:28:28;;;;;;;6.55;3.70;;;;;;;12.80;55.00;96746.56;6066811;23;20023;-78
2022/11/25 11:31:00;;;;;;;4.43;3.70;;;;;;;12.72;55.40;96745.69;6066309;23;20026;-78
2022/11/25 11:33:34;;;;;;;6.57;3.80;;;;;;;12.58;55.28;96747.41;6067618;23;20026;-81
2022/11/25 11:36:21;;;;;;;10.25;4.03;;;;;;;12.44;54.55;96744.88;6068036;23;20234;-78
2022/11/25 11:38:53;;;;;;;6.25;3.33;;;;;;;12.33;56.41;96749.66;6067022;23;20359;-79
2022/11/25 11:41:34;;;;;;;5.85;2.95;;;;;;;12.25;54.53;96755.00;6067399;23;20019;-78
2022/11/25 11:44:18;;;;;;;6.75;2.70;;;;;;;12.13;54.93;96751.28;6066899;23;20031;-79
2022/11/25 11:47:17;;;;;;;6.75;3.13;;;;;;;11.99;56.30;96749.56;6067374;23;20030;-79
2022/11/25 11:50:02;;;;;;;7.72;2.75;;;;;;;11.88;55.53;96759.50;6067215;23;20023;-79
2022/11/25 11:52:40;;;;;;;11.27;3.00;;;;;;;11.79;55.84;96757.97;6068265;23;20502;-81
2022/11/25 11:55:32;;;;;;;11.35;3.65;;;;;;;11.70;57.58;96765.13;6068784;23;20019;-80
2022/11/25 11:58:10;;;;;;;8.75;2.95;;;;;;;11.66;59.24;96765.66;6068779;23;20076;-81
2022/11/25 12:00:47;;;;;;;6.38;2.90;;;;;;;11.61;58.38;96768.00;6066968;23;20042;-79
2022/11/25 12:03:20;;;;;;;4.18;2.28;;;;;;;11.54;58.68;96763.53;6067026;23;20027;-80
2022/11/25 12:05:53;;;;;;;4.63;2.03;;;;;;;11.48;58.21;96779.13;6066999;23;20030;-78
2022/11/25 12:08:30;;;;;;;2.85;1.70;;;;;;;11.40;58.19;96774.81;6066676;23;20029;-79
2022/11/25 12:11:02;;;;;;;4.18;1.85;;;;;;;11.36;58.01;96770.13;6066404;23;20023;-78
2022/11/25 12:13:37;;;;;;;5.38;2.42;;;;;;;11.31;57.79;96781.13;6066627;23;20538;-79
2022/11/25 12:16:10;;;;;;;4.25;1.60;;;;;;;11.25;58.44;96782.66;6066988;23;20026;-79
2022/11/25 12:18:45;;;;;;;4.57;1.73;;;;;;;11.16;57.91;96786.34;6066935;23;20090;-79
2022/11/25 12:21:28;;;;;;;6.38;2.40;;;;;;;11.07;59.79;96788.25;6067059;23;20026;-79
2022/11/25 12:24:02;;;;;;;4.75;1.58;;;;;;;11.00;59.14;96794.34;6066552;23;20030;-78
2022/11/25 12:26:39;;;;;;;3.88;2.17;;;;;;;10.95;59.51;96794.91;6066679;23;20026;-78
2022/11/25 12:29:12;;;;;;;7.82;3.72;;;;;;;10.85;59.13;96797.78;6065959;23;20463;-79
2022/11/25 12:31:45;;;;;;;10.65;3.28;;;;;;;10.78;60.62;96809.94;6067077;23;20023;-79
2022/11/25 12:34:20;;;;;;;13.40;3.85;;;;;;;10.65;61.82;96801.91;6066196;23;20026;-78
2022/11/25 12:36:49;;;;;;;6.45;2.53;;;;;;;10.52;62.60;96805.09;6067196;23;20049;-78
2022/11/25 12:39:25;;;;;;;5.38;2.40;;;;;;;10.42;62.89;96810.53;6066291;23;20033;-78
2022/11/25 12:41:58;;;;;;;8.60;3.03;;;;;;;10.29;63.91;96821.56;6066557;23;20030;-79
2022/11/25 12:44:30;;;;;;;6.35;2.92;;;;;;;10.18;64.80;96818.53;6067076;23;20110;-78
2022/11/25 12:46:58;;;;;;;8.15;3.10;;;;;;;10.08;64.94;96829.19;6068508;23;20482;-79
2022/11/25 12:49:28;;;;;;;5.82;2.35;;;;;;;9.99;65.45;96835.41;6069910;23;20371;-80
2022/11/25 12:52:21;;;;;;;5.47;2.75;;;;;;;9.96;66.40;96830.56;6069941;23;20034;-80
2022/11/25 12:55:03;;;;;;;3.83;2.60;;;;;;;9.94;66.23;96827.31;6070132;23;20033;-79
2022/11/25 12:58:08;;;;;;;6.05;3.25;;;;;;;9.89;66.91;96833.84;6069484;23;20456;-78
2022/11/25 13:00:52;;;;;;;5.57;3.25;;;;;;;9.85;67.59;96848.19;6045160;23;20041;-79
2022/11/25 13:03:55;;;;;;;3.75;2.08;;;;;;;9.84;68.08;96840.56;6070279;23;20033;-78
2022/11/25 13:07:01;;;;;;;3.77;2.30;;;;;;;9.80;67.13;96853.13;6071220;23;20486;-80
2022/11/25 13:09:57;;;;;;;6.20;3.58;;;;;;;9.76;68.01;96851.03;6032482;23;20029;-80
2022/11/25 13:12:37;;;;;;;5.40;2.55;;;;;;;9.72;68.42;96860.16;6074574;23;20106;-79
2022/11/25 13:15:20;;;;;;;3.72;2.42;;;;;;;9.66;68.25;96852.06;6072326;23;20027;-79
2022/11/25 13:17:51;;;;;;;4.95;2.35;;;;;;;9.64;68.13;96850.56;6072184;23;20446;-78
2022/11/25 13:20:32;;;;;;;4.00;3.00;;;;;;;9.59;69.11;96851.09;6081570;23;20050;-77
2022/11/25 13:23:09;;;;;;;5.72;2.67;;;;;;;9.56;68.21;96855.84;6073897;23;20572;-77
2022/11/25 13:25:40;;;;;;;4.00;3.03;;;;;;;9.48;68.34;96854.88;6069928;23;20030;-77
2022/11/25 13:28:28;;;;;;;6.47;3.22;;;;;;;9.44;69.20;96853.56;6069216;23;20447;-77
2022/11/25 13:31:17;;;;;;;7.05;3.08;;;;;;;9.42;70.04;96860.75;6069948;23;20027;-77
2022/11/25 13:34:02;;;;;;;5.72;2.67;;;;;;;9.42;70.02;96858.16;6069448;23;20078;-78
2022/11/25 13:36:45;;;;;;;5.45;3.70;;;;;;;9.40;69.81;96857.53;6069861;23;20033;-77
2022/11/25 13:39:15;;;;;;;5.93;3.65;;;;;;;9.37;69.56;96857.84;6069408;23;20355;-77
2022/11/25 13:42:00;;;;;;;5.30;3.30;;;;;;;9.38;70.61;96866.44;6070423;23;20023;-78
2022/11/25 13:44:31;;;;;;;8.73;3.53;;;;;;;9.35;69.90;96869.41;6070041;23;20023;-78
2022/11/25 13:47:20;;;;;;;7.15;3.33;;;;;;;9.32;70.38;96872.34;6069755;23;20023;-77
2022/11/25 13:49:52;;;;;;;8.35;4.03;;;;;;;9.32;70.56;96873.16;6069624;23;20045;-78
2022/11/25 13:52:40;;;;;;;5.88;3.60;;;;;;;9.32;70.54;96878.38;6069766;23;20076;-79
2022/11/25 13:55:31;;;;;;;7.25;4.00;;;;;;;9.29;70.82;96876.06;6070542;23;20023;-79
2022/11/25 13:58:07;;;;;;;3.53;2.90;;;;;;;9.27;70.85;96883.22;6067890;23;20026;-77